Time;durP1;ratioP1;P1;durP2;ratioP2;P2;SDS_P1;SDS_P2;PMS_P1;PMS_P2;Temp;Humidity;BMP_temperature;BMP_pressure;BME280_temperature;BME280_humidity;BME280_pressure;Samples;Min_cycle;Max_cycle;Signal;HPM_P1;HPM_P2
2023/03/11 00:01:29;;;;;;;2.28;1.17;;;3.30;1.00;;;;;;7369802;19;20458;-67
2023/03/11 00:04:01;;;;;;;1.55;1.27;;;3.30;1.00;;;;;;7371454;19;20366;-66
2023/03/11 00:06:31;;;;;;;1.77;1.30;;;3.30;1.00;;;;;;7378136;19;20018;-68
2023/03/11 00:09:01;;;;;;;1.80;1.10;;;3.30;1.00;;;;;;7392155;19;20010;-66
2023/03/11 00:11:31;;;;;;;2.42;1.30;;;3.20;1.00;;;;;;7370323;19;20030;-66
2023/03/11 00:14:00;;;;;;;1.67;1.20;;;3.20;1.00;;;;;;7369803;19;20543;-66
2023/03/11 00:16:30;;;;;;;3.10;1.38;;;3.10;1.00;;;;;;7368775;19;20074;-67
2023/03/11 00:19:02;;;;;;;3.08;1.45;;;3.10;1.00;;;;;;7369385;19;20086;-67
2023/03/11 00:21:33;;;;;;;2.92;1.60;;;3.20;1.00;;;;;;7369509;19;20010;-67
2023/03/11 00:24:03;;;;;;;1.75;1.30;;;3.10;1.00;;;;;;7392155;19;20010;-66
2023/03/11 00:26:33;;;;;;;2.63;1.35;;;3.00;1.00;;;;;;7367882;19;20105;-66
2023/03/11 00:29:03;;;;;;;2.55;1.52;;;3.00;1.00;;;;;;7367530;19;20014;-67
2023/03/11 00:31:33;;;;;;;2.10;1.65;;;2.90;1.00;;;;;;7369541;19;20010;-66
2023/03/11 00:34:05;;;;;;;2.25;1.42;;;2.90;1.00;;;;;;7369274;19;20429;-67
2023/03/11 00:36:35;;;;;;;2.25;1.50;;;2.80;1.00;;;;;;7368756;19;20503;-66
2023/03/11 00:39:06;;;;;;;2.72;1.55;;;2.90;1.00;;;;;;7391096;19;20014;-67
2023/03/11 00:41:37;;;;;;;3.47;1.73;;;2.80;1.00;;;;;;7369611;19;20106;-66
2023/03/11 00:44:07;;;;;;;2.70;1.52;;;2.80;1.00;;;;;;7369442;19;20014;-66
2023/03/11 00:46:36;;;;;;;2.10;1.48;;;2.80;1.00;;;;;;7367473;19;20028;-66
2023/03/11 00:49:10;;;;;;;3.83;1.60;;;2.80;1.00;;;;;;7368788;19;20014;-65
2023/03/11 00:51:40;;;;;;;3.15;1.65;;;2.80;1.00;;;;;;7367166;19;20014;-66
2023/03/11 00:54:09;;;;;;;3.75;1.90;;;2.80;1.00;;;;;;7391321;19;20024;-67
2023/03/11 00:56:40;;;;;;;3.65;1.70;;;2.80;1.00;;;;;;7368206;19;20050;-65
2023/03/11 00:59:10;;;;;;;2.42;1.70;;;2.80;1.00;;;;;;7368511;19;20010;-65
2023/03/11 01:01:40;;;;;;;6.72;1.80;;;2.70;1.00;;;;;;7368277;19;20018;-65
2023/03/11 01:04:12;;;;;;;3.42;1.55;;;2.70;1.00;;;;;;7368450;19;20102;-66
2023/03/11 01:06:42;;;;;;;5.22;2.00;;;2.70;1.00;;;;;;7367623;19;20007;-66
2023/03/11 01:09:14;;;;;;;2.10;1.60;;;2.80;1.00;;;;;;7390132;19;21380;-66
2023/03/11 01:11:44;;;;;;;4.57;2.25;;;2.80;1.00;;;;;;7368926;19;20487;-65
2023/03/11 01:14:14;;;;;;;3.00;1.80;;;2.80;1.00;;;;;;7368584;19;20474;-65
2023/03/11 01:16:45;;;;;;;4.07;1.92;;;2.70;1.00;;;;;;7368117;19;20605;-66
2023/03/11 01:19:17;;;;;;;5.22;2.08;;;2.60;1.00;;;;;;7367046;19;20010;-66
2023/03/11 01:21:47;;;;;;;3.75;1.88;;;2.60;1.00;;;;;;7369064;19;20022;-66
2023/03/11 01:24:17;;;;;;;2.78;1.65;;;2.70;1.00;;;;;;7389496;19;20006;-66
2023/03/11 01:26:46;;;;;;;2.38;1.90;;;2.60;1.00;;;;;;7366953;19;20078;-66
2023/03/11 01:29:16;;;;;;;2.88;1.95;;;2.60;1.00;;;;;;7367079;19;20018;-66
2023/03/11 01:31:46;;;;;;;6.63;1.88;;;2.50;1.00;;;;;;7368478;19;20395;-66
2023/03/11 01:34:18;;;;;;;4.13;1.73;;;2.60;1.00;;;;;;7368642;19;20029;-66
2023/03/11 01:36:48;;;;;;;2.72;1.85;;;2.50;1.00;;;;;;7367488;19;20038;-65
2023/03/11 01:39:18;;;;;;;3.30;1.92;;;2.50;1.00;;;;;;7388799;19;20031;-66
2023/03/11 01:41:48;;;;;;;3.17;1.90;;;2.50;1.00;;;;;;7367462;19;20400;-66
2023/03/11 01:44:18;;;;;;;3.65;1.95;;;2.50;1.00;;;;;;7367399;19;20002;-64
2023/03/11 01:47:18;;;;;;;4.10;1.70;;;2.60;1.00;;;;;;7367223;19;20015;-66
2023/03/11 01:49:50;;;;;;;3.15;1.45;;;2.50;1.00;;;;;;7365629;19;20078;-66
2023/03/11 01:52:21;;;;;;;5.60;2.15;;;2.40;1.00;;;;;;7368675;19;20003;-65
2023/03/11 01:54:51;;;;;;;2.88;1.63;;;2.50;1.00;;;;;;7367500;19;20008;-66
2023/03/11 01:57:23;;;;;;;4.78;2.55;;;2.40;1.00;;;;;;7388673;19;20010;-66
2023/03/11 01:59:57;;;;;;;3.28;1.90;;;2.40;1.00;;;;;;7365803;19;20803;-66
2023/03/11 02:02:32;;;;;;;4.50;1.83;;;2.30;1.00;;;;;;7367054;19;20090;-65
2023/03/11 02:05:05;;;;;;;2.63;1.73;;;2.40;1.00;;;;;;7375218;19;20011;-66
2023/03/11 02:07:36;;;;;;;3.65;1.92;;;2.30;1.00;;;;;;7372943;19;20018;-66
2023/03/11 02:10:07;;;;;;;4.28;1.65;;;2.30;1.00;;;;;;7373672;19;20014;-67
2023/03/11 02:12:39;;;;;;;6.05;1.55;;;2.30;1.00;;;;;;7375470;19;20013;-66
2023/03/11 02:15:11;;;;;;;4.00;1.90;;;2.20;1.00;;;;;;7396668;19;20015;-66
2023/03/11 02:17:43;;;;;;;3.08;1.77;;;2.20;1.00;;;;;;7374324;19;20573;-65
2023/03/11 02:20:24;;;;;;;2.65;2.08;;;2.10;1.00;;;;;;7371278;19;20348;-65
2023/03/11 02:22:56;;;;;;;2.53;1.42;;;2.10;1.00;;;;;;7374631;19;20013;-66
2023/03/11 02:25:32;;;;;;;1.52;1.40;;;2.10;1.00;;;;;;7375029;19;20015;-66
2023/03/11 02:28:07;;;;;;;3.42;1.67;;;2.00;1.00;;;;;;7376682;19;20011;-66
2023/03/11 02:30:41;;;;;;;2.50;1.75;;;2.00;1.00;;;;;;7376464;19;20013;-65
2023/03/11 02:33:11;;;;;;;4.32;1.52;;;1.90;1.00;;;;;;7398213;19;20808;-66
2023/03/11 02:35:41;;;;;;;4.30;1.80;;;1.90;1.00;;;;;;7373203;19;20011;-66
2023/03/11 02:38:11;;;;;;;4.55;1.52;;;1.80;1.00;;;;;;7372975;19;20014;-66
2023/03/11 02:40:50;;;;;;;2.35;1.50;;;1.80;1.00;;;;;;7372205;19;20025;-65
2023/03/11 02:43:26;;;;;;;4.25;1.50;;;1.70;1.00;;;;;;7373380;19;20010;-66
2023/03/11 02:45:58;;;;;;;2.58;1.92;;;1.60;1.00;;;;;;7373612;19;20014;-67
2023/03/11 02:48:30;;;;;;;3.25;1.40;;;1.60;1.00;;;;;;7393036;19;20017;-65
2023/03/11 02:51:03;;;;;;;1.70;1.40;;;1.60;1.00;;;;;;7373833;19;20017;-66
2023/03/11 02:53:38;;;;;;;3.28;1.67;;;1.50;1.00;;;;;;7372541;19;20081;-66
2023/03/11 02:56:08;;;;;;;4.50;2.20;;;1.40;1.00;;;;;;7372895;19;20021;-66
2023/03/11 02:58:41;;;;;;;5.65;1.70;;;1.40;1.00;;;;;;7371825;19;20021;-66
2023/03/11 03:01:11;;;;;;;2.92;1.50;;;1.30;1.00;;;;;;7372914;19;20117;-66
2023/03/11 03:03:42;;;;;;;4.55;1.60;;;1.30;1.00;;;;;;7372326;19;20018;-65
2023/03/11 03:06:11;;;;;;;2.88;1.60;;;1.20;1.00;;;;;;7394667;19;20014;-65
2023/03/11 03:08:41;;;;;;;3.38;1.40;;;1.20;1.00;;;;;;7370646;19;20011;-66
2023/03/11 03:11:11;;;;;;;2.90;1.40;;;1.10;1.00;;;;;;7372684;19;20010;-65
2023/03/11 03:13:43;;;;;;;7.50;1.83;;;1.10;1.00;;;;;;7371887;19;20626;-65
2023/03/11 03:16:13;;;;;;;2.45;1.52;;;1.10;1.00;;;;;;7369701;19;20100;-66
2023/03/11 03:18:43;;;;;;;7.00;1.92;;;1.00;1.00;;;;;;7371470;19;20108;-66
2023/03/11 03:21:13;;;;;;;2.88;1.73;;;1.00;1.00;;;;;;7394631;19;20011;-66
2023/03/11 03:23:43;;;;;;;3.60;1.23;;;1.00;1.00;;;;;;7371661;19;20014;-66
2023/03/11 03:26:15;;;;;;;4.82;1.40;;;0.90;1.00;;;;;;7371857;19;20836;-66
2023/03/11 03:28:47;;;;;;;3.38;1.20;;;0.90;1.00;;;;;;7371148;19;20397;-66
2023/03/11 03:31:17;;;;;;;3.97;1.50;;;0.90;1.00;;;;;;7372404;19;20465;-66
2023/03/11 03:33:47;;;;;;;3.47;1.42;;;0.90;1.00;;;;;;7371736;19;20463;-66
2023/03/11 03:36:17;;;;;;;4.68;1.08;;;0.80;1.00;;;;;;7394713;19;20418;-66
2023/03/11 03:38:47;;;;;;;5.28;1.60;;;0.90;1.00;;;;;;7371464;19;20473;-66
2023/03/11 03:41:17;;;;;;;1.40;1.20;;;0.80;1.00;;;;;;7371776;19;20454;-66
2023/03/11 03:43:50;;;;;;;3.30;1.50;;;0.80;1.00;;;;;;7371664;19;20604;-66
2023/03/11 03:46:20;;;;;;;5.53;1.55;;;0.80;1.00;;;;;;7369408;19;20015;-66
2023/03/11 03:48:50;;;;;;;6.28;1.30;;;0.90;1.00;;;;;;7369786;19;20024;-67
2023/03/11 03:51:20;;;;;;;4.50;1.42;;;0.90;1.00;;;;;;7393067;19;20010;-65
2023/03/11 03:53:50;;;;;;;2.53;1.10;;;0.90;1.00;;;;;;7371014;19;20023;-65
2023/03/11 03:56:20;;;;;;;7.25;1.58;;;1.00;1.00;;;;;;7370056;19;20481;-66
2023/03/11 03:58:52;;;;;;;4.82;1.40;;;0.90;1.00;;;;;;7370345;19;20040;-65
2023/03/11 04:01:22;;;;;;;3.97;1.10;;;0.90;1.00;;;;;;7369905;19;20011;-66
2023/03/11 04:03:52;;;;;;;3.03;1.48;;;0.90;1.00;;;;;;7370510;19;20098;-66
2023/03/11 04:06:25;;;;;;;4.75;1.13;;;0.90;1.00;;;;;;7391439;19;20006;-65
2023/03/11 04:08:55;;;;;;;4.07;1.30;;;0.90;1.00;;;;;;7369256;19;20023;-65
2023/03/11 04:11:25;;;;;;;4.05;1.08;;;0.90;1.00;;;;;;7369736;19;20010;-65
2023/03/11 04:13:58;;;;;;;3.55;1.40;;;0.90;1.00;;;;;;7368752;19;20019;-65
2023/03/11 04:16:27;;;;;;;4.50;1.10;;;0.90;1.00;;;;;;7369546;19;20466;-65
2023/03/11 04:18:57;;;;;;;2.97;1.60;;;0.90;1.00;;;;;;7369447;19;20018;-65
2023/03/11 04:21:27;;;;;;;3.55;1.20;;;0.80;1.00;;;;;;7391878;19;20020;-64
2023/03/11 04:23:57;;;;;;;4.40;1.38;;;0.80;1.00;;;;;;7370379;19;20021;-65
2023/03/11 04:26:27;;;;;;;8.32;1.50;;;0.70;1.00;;;;;;7369278;19;20488;-66
2023/03/11 04:29:00;;;;;;;2.70;1.15;;;0.70;1.00;;;;;;7368700;19;20018;-65
2023/03/11 04:31:30;;;;;;;4.63;1.25;;;0.60;1.00;;;;;;7369411;19;20007;-66
2023/03/11 04:33:59;;;;;;;2.92;1.13;;;0.60;1.00;;;;;;7368788;19;20065;-65
2023/03/11 04:36:29;;;;;;;5.72;1.27;;;0.60;1.00;;;;;;7390384;19;20010;-65
2023/03/11 04:38:59;;;;;;;2.72;1.60;;;0.60;1.00;;;;;;7369769;19;20010;-65
2023/03/11 04:41:29;;;;;;;5.45;1.40;;;0.50;1.00;;;;;;7369053;19;20013;-66
2023/03/11 04:44:02;;;;;;;2.67;1.13;;;0.50;1.00;;;;;;7369313;19;20412;-65
2023/03/11 04:46:31;;;;;;;4.88;1.65;;;0.50;1.00;;;;;;7368454;19;20085;-65
2023/03/11 04:49:01;;;;;;;5.38;1.60;;;0.60;1.00;;;;;;7368173;19;20014;-66
2023/03/11 04:51:31;;;;;;;4.63;1.60;;;0.50;1.00;;;;;;7380230;19;20019;-66
2023/03/11 04:54:01;;;;;;;4.20;1.45;;;0.60;1.00;;;;;;7390750;19;20018;-65
2023/03/11 04:56:31;;;;;;;4.03;1.35;;;0.60;1.00;;;;;;7368207;19;20016;-65
2023/03/11 04:59:03;;;;;;;4.78;1.38;;;0.70;1.00;;;;;;7368265;19;20474;-65
2023/03/11 05:01:33;;;;;;;5.90;2.25;;;0.70;1.00;;;;;;7368053;19;20010;-65
2023/03/11 05:04:03;;;;;;;6.75;1.90;;;0.70;1.00;;;;;;7369029;19;20471;-66
2023/03/11 05:06:32;;;;;;;4.32;1.50;;;0.70;1.00;;;;;;7367924;19;20368;-64
2023/03/11 05:09:03;;;;;;;3.47;1.90;;;0.70;1.00;;;;;;7389161;19;20014;-65
2023/03/11 05:11:33;;;;;;;8.02;1.90;;;0.70;1.00;;;;;;7367892;19;20010;-65
2023/03/11 05:14:05;;;;;;;7.40;1.77;;;0.60;1.00;;;;;;7367957;19;20014;-65
2023/03/11 05:16:35;;;;;;;9.02;1.70;;;0.60;1.00;;;;;;7368023;19;20014;-65
2023/03/11 05:19:29;;;;;;;4.18;1.70;;;0.50;1.00;;;;;;7367934;19;20025;-65
2023/03/11 05:21:55;;;;;;;6.22;2.40;;;0.50;1.00;;;;;;7368857;19;20023;-65
2023/03/11 05:24:25;;;;;;;3.90;1.75;;;0.50;1.00;;;;;;7389593;19;20010;-65
2023/03/11 05:26:54;;;;;;;5.68;2.42;;;0.50;1.00;;;;;;7367465;19;20015;-65
2023/03/11 05:29:27;;;;;;;9.32;1.70;;;0.40;1.00;;;;;;7366190;19;20010;-65
2023/03/11 05:31:57;;;;;;;2.78;1.33;;;0.40;1.00;;;;;;7369275;19;20014;-65
2023/03/11 05:34:27;;;;;;;6.22;2.17;;;0.40;1.00;;;;;;7366994;19;20453;-66
2023/03/11 05:36:57;;;;;;;5.80;1.60;;;0.30;1.00;;;;;;7367577;19;20013;-66
2023/03/11 05:39:27;;;;;;;4.45;1.55;;;0.30;1.00;;;;;;7393798;19;20163;-65
2023/03/11 05:41:57;;;;;;;6.60;2.08;;;0.30;1.00;;;;;;7376388;19;20010;-66
2023/03/11 05:44:30;;;;;;;7.60;1.98;;;0.30;1.00;;;;;;7374604;19;20306;-66
2023/03/11 05:47:00;;;;;;;4.30;1.63;;;0.30;1.00;;;;;;7374510;19;20015;-66
2023/03/11 05:49:30;;;;;;;6.90;1.50;;;0.20;1.00;;;;;;7372338;19;20010;-66
2023/03/11 05:52:00;;;;;;;4.05;1.80;;;0.30;1.00;;;;;;7376011;19;20522;-65
2023/03/11 05:54:29;;;;;;;3.97;1.73;;;0.30;1.00;;;;;;7396737;19;20007;-66
2023/03/11 05:56:59;;;;;;;3.80;1.80;;;0.30;1.00;;;;;;7374585;19;20021;-65
2023/03/11 05:59:34;;;;;;;6.63;1.95;;;0.20;1.00;;;;;;7372116;19;20513;-67
2023/03/11 06:02:03;;;;;;;;;;;0.30;1.00;;;;;;7375914;19;20477;-66
2023/03/11 06:04:33;;;;;;;6.97;2.08;;;0.30;1.00;;;;;;7377955;19;19915;-66
2023/03/11 06:07:03;;;;;;;4.53;2.58;;;0.30;1.00;;;;;;7377019;19;20011;-66
2023/03/11 06:09:35;;;;;;;7.80;2.88;;;0.30;1.00;;;;;;7376834;19;20034;-65
2023/03/11 06:12:05;;;;;;;6.20;2.08;;;0.30;1.00;;;;;;7397901;19;20010;-66
2023/03/11 06:14:38;;;;;;;7.43;2.47;;;0.30;1.00;;;;;;7374094;19;20014;-66
2023/03/11 06:17:07;;;;;;;8.00;2.10;;;0.40;1.00;;;;;;7374256;19;20101;-66
2023/03/11 06:19:37;;;;;;;4.65;1.80;;;0.50;1.00;;;;;;7372751;19;20489;-66
2023/03/11 06:22:07;;;;;;;4.03;2.00;;;0.50;1.00;;;;;;7375065;19;20024;-65
2023/03/11 06:24:37;;;;;;;9.60;2.30;;;0.60;1.00;;;;;;7373819;19;20525;-65
2023/03/11 06:27:08;;;;;;;4.95;2.20;;;0.60;1.00;;;;;;7394840;19;20021;-66
2023/03/11 06:29:40;;;;;;;4.10;2.20;;;0.60;1.00;;;;;;7371513;19;20025;-66
2023/03/11 06:32:10;;;;;;;3.63;1.90;;;0.70;1.00;;;;;;7374302;19;20014;-66
2023/03/11 06:34:40;;;;;;;6.20;2.28;;;0.80;1.00;;;;;;7372723;19;20014;-66
2023/03/11 06:37:09;;;;;;;5.43;1.77;;;0.70;1.00;;;;;;7372173;19;20014;-65
2023/03/11 06:39:39;;;;;;;5.57;1.95;;;0.80;1.00;;;;;;7371115;19;20029;-65
2023/03/11 06:42:11;;;;;;;6.75;2.47;;;0.90;1.00;;;;;;7395836;19;20079;-65
2023/03/11 06:44:44;;;;;;;8.00;2.22;;;1.00;1.00;;;;;;7372749;19;20014;-65
2023/03/11 06:47:14;;;;;;;7.13;2.50;;;1.10;1.00;;;;;;7373305;19;20020;-65
2023/03/11 06:49:44;;;;;;;5.65;2.15;;;1.10;1.00;;;;;;7370502;19;20027;-65
2023/03/11 06:52:14;;;;;;;7.78;1.85;;;1.10;1.00;;;;;;7374178;19;20013;-65
2023/03/11 06:54:44;;;;;;;6.72;1.80;;;1.30;1.00;;;;;;7372803;19;20026;-65
2023/03/11 06:57:14;;;;;;;8.95;2.00;;;1.40;1.00;;;;;;7394481;19;20006;-67
2023/03/11 06:59:46;;;;;;;4.35;1.98;;;1.60;1.00;;;;;;7370769;19;20124;-65
2023/03/11 07:02:16;;;;;;;5.90;2.05;;;1.70;1.00;;;;;;7371574;19;20021;-65
2023/03/11 07:04:46;;;;;;;5.20;1.65;;;1.80;1.00;;;;;;7372708;19;20446;-65
2023/03/11 07:07:16;;;;;;;5.57;1.65;;;1.80;1.00;;;;;;7372763;19;20042;-65
2023/03/11 07:09:45;;;;;;;6.80;1.70;;;1.60;1.00;;;;;;7370821;19;20094;-65
2023/03/11 07:12:16;;;;;;;8.07;1.85;;;1.60;1.00;;;;;;7395659;19;20007;-65
2023/03/11 07:14:49;;;;;;;4.35;1.45;;;1.70;1.00;;;;;;7372174;19;20010;-65
2023/03/11 07:17:18;;;;;;;6.50;2.00;;;1.60;1.00;;;;;;7372418;19;20018;-64
2023/03/11 07:19:48;;;;;;;8.82;2.17;;;2.00;1.00;;;;;;7369757;19;20105;-66
2023/03/11 07:22:18;;;;;;;5.05;1.70;;;1.70;1.00;;;;;;7373215;19;20010;-65
2023/03/11 07:24:49;;;;;;;3.95;1.75;;;1.80;1.00;;;;;;7372089;19;20018;-65
2023/03/11 07:27:19;;;;;;;3.25;1.45;;;1.70;1.00;;;;;;7393486;19;20026;-65
2023/03/11 07:29:52;;;;;;;10.73;2.17;;;1.70;1.00;;;;;;7369658;19;20107;-66
2023/03/11 07:32:22;;;;;;;9.15;2.00;;;1.90;1.00;;;;;;7371729;19;20011;-66
2023/03/11 07:34:52;;;;;;;8.50;2.30;;;2.00;1.00;;;;;;7370340;19;20034;-66
2023/03/11 07:37:21;;;;;;;10.93;2.55;;;2.00;1.00;;;;;;7369482;19;20030;-66
2023/03/11 07:39:51;;;;;;;9.65;2.08;;;2.10;1.00;;;;;;7370206;19;20020;-66
2023/03/11 07:42:21;;;;;;;7.65;1.80;;;2.10;1.00;;;;;;7393435;19;20094;-65
2023/03/11 07:44:55;;;;;;;9.32;2.75;;;2.10;1.00;;;;;;7370892;19;20022;-65
2023/03/11 07:47:24;;;;;;;5.78;1.55;;;2.00;1.00;;;;;;7370237;19;20486;-65
2023/03/11 07:49:54;;;;;;;7.43;1.83;;;2.10;1.00;;;;;;7368783;19;20007;-66
2023/03/11 07:52:26;;;;;;;4.07;1.90;;;1.90;1.00;;;;;;7371149;19;20010;-66
2023/03/11 07:54:56;;;;;;;6.22;1.70;;;2.10;1.00;;;;;;7370792;19;20027;-66
2023/03/11 07:57:26;;;;;;;4.13;1.65;;;1.80;1.00;;;;;;7391635;19;20487;-65
2023/03/11 07:59:58;;;;;;;8.95;2.67;;;2.00;1.00;;;;;;7368637;19;20400;-66
2023/03/11 08:02:28;;;;;;;7.93;1.95;;;2.20;1.00;;;;;;7369343;19;20010;-66
2023/03/11 08:04:58;;;;;;;3.80;1.27;;;2.00;1.00;;;;;;7369078;19;20053;-65
2023/03/11 08:07:28;;;;;;;6.88;1.90;;;1.70;1.00;;;;;;7369220;19;20522;-66
2023/03/11 08:09:57;;;;;;;8.50;1.65;;;2.30;1.00;;;;;;7369478;19;20090;-65
2023/03/11 08:12:27;;;;;;;5.22;1.75;;;2.10;1.00;;;;;;7392407;19;20023;-65
2023/03/11 08:15:00;;;;;;;6.05;1.55;;;2.40;1.00;;;;;;7370059;19;20014;-66
2023/03/11 08:17:29;;;;;;;6.57;2.00;;;2.60;1.00;;;;;;7369139;19;20011;-65
2023/03/11 08:20:00;;;;;;;5.35;1.38;;;2.20;1.00;;;;;;7368758;19;20416;-65
2023/03/11 08:22:31;;;;;;;6.18;1.88;;;2.40;1.00;;;;;;7369792;19;20481;-65
2023/03/11 08:25:01;;;;;;;5.75;1.83;;;2.60;1.00;;;;;;7369817;19;20428;-65
2023/03/11 08:27:31;;;;;;;3.88;1.55;;;2.90;1.00;;;;;;7385161;19;20010;-65
2023/03/11 08:30:03;;;;;;;6.53;1.98;;;2.40;1.00;;;;;;7389926;19;20011;-65
2023/03/11 08:32:33;;;;;;;5.70;1.85;;;2.30;1.00;;;;;;7369835;19;20013;-66
2023/03/11 08:35:03;;;;;;;6.25;1.90;;;2.30;1.00;;;;;;7369242;19;20027;-66
2023/03/11 08:37:33;;;;;;;6.32;1.40;;;2.70;1.00;;;;;;7367485;19;20066;-65
2023/03/11 08:40:03;;;;;;;6.65;1.98;;;2.90;1.00;;;;;;7367997;19;20018;-65
2023/03/11 08:42:32;;;;;;;5.53;1.73;;;2.60;1.00;;;;;;7369245;19;20078;-65
2023/03/11 08:45:10;;;;;;;5.60;2.05;;;2.50;1.00;;;;;;7390974;19;20022;-66
2023/03/11 08:47:40;;;;;;;7.97;2.13;;;2.50;1.00;;;;;;7368103;19;20014;-65
2023/03/11 08:50:15;;;;;;;7.45;2.00;;;2.40;1.00;;;;;;7366639;19;20022;-64
2023/03/11 08:52:45;;;;;;;4.63;1.70;;;2.90;1.00;;;;;;7368639;19;20018;-66
2023/03/11 08:55:17;;;;;;;5.45;1.85;;;3.10;1.00;;;;;;7367651;19;20324;-65
2023/03/11 08:57:47;;;;;;;4.45;1.48;;;2.80;1.00;;;;;;7367669;19;20010;-65
2023/03/11 09:00:20;;;;;;;6.47;1.60;;;3.10;1.00;;;;;;7389853;19;20352;-65
2023/03/11 09:02:50;;;;;;;6.00;1.65;;;3.20;1.00;;;;;;7368998;19;20010;-66
2023/03/11 09:05:21;;;;;;;5.72;1.67;;;3.40;1.00;;;;;;7367268;19;20016;-67
2023/03/11 09:07:51;;;;;;;5.18;1.80;;;3.00;1.00;;;;;;7368460;19;20021;-65
2023/03/11 09:10:21;;;;;;;6.03;1.60;;;3.00;1.00;;;;;;7367084;19;20002;-65
2023/03/11 09:12:50;;;;;;;6.25;1.58;;;3.20;1.00;;;;;;7365408;19;20026;-66
2023/03/11 09:15:23;;;;;;;5.88;2.05;;;3.60;1.00;;;;;;7387847;19;20078;-68
2023/03/11 09:17:53;;;;;;;7.18;1.95;;;3.60;1.00;;;;;;7368556;19;20017;-65
2023/03/11 09:20:23;;;;;;;3.92;1.20;;;3.20;1.00;;;;;;7365561;19;20015;-66
2023/03/11 09:22:53;;;;;;;8.23;1.63;;;3.40;1.00;;;;;;7368656;19;20502;-64
2023/03/11 09:25:23;;;;;;;2.38;1.10;;;3.50;1.00;;;;;;7365742;19;20011;-64
2023/03/11 09:27:52;;;;;;;3.15;1.02;;;3.20;1.00;;;;;;7368221;19;20430;-65
2023/03/11 09:30:25;;;;;;;4.70;1.13;;;3.60;1.00;;;;;;7388955;19;20018;-66
2023/03/11 09:32:55;;;;;;;4.32;1.52;;;3.20;1.00;;;;;;7366408;19;20015;-65
2023/03/11 09:35:24;;;;;;;6.18;1.50;;;3.60;1.00;;;;;;7366333;19;20015;-66
2023/03/11 09:37:54;;;;;;;6.47;1.60;;;4.10;1.00;;;;;;7367561;19;20010;-65
2023/03/11 09:40:27;;;;;;;5.50;1.70;;;4.40;1.00;;;;;;7366002;19;20017;-65
2023/03/11 09:43:08;;;;;;;7.00;1.25;;;4.30;1.00;;;;;;7367602;19;20018;-66
2023/03/11 09:45:45;;;;;;;3.92;1.27;;;4.30;1.00;;;;;;7366474;19;20025;-65
2023/03/11 09:48:25;;;;;;;4.13;0.95;;;4.10;1.00;;;;;;7389604;19;20014;-64
2023/03/11 09:50:59;;;;;;;2.30;1.02;;;4.10;1.00;;;;;;7365473;19;20021;-66
2023/03/11 09:53:39;;;;;;;5.60;1.30;;;3.90;1.00;;;;;;7366479;19;20062;-64
2023/03/11 09:56:12;;;;;;;6.07;1.00;;;3.70;1.00;;;;;;7366705;19;20101;-66
2023/03/11 09:58:46;;;;;;;8.88;1.38;;;4.00;1.00;;;;;;7365731;19;20116;-66
2023/03/11 10:01:26;;;;;;;3.85;1.30;;;4.30;1.00;;;;;;7367225;19;20007;-65
2023/03/11 10:03:58;;;;;;;4.65;1.20;;;4.40;1.00;;;;;;7366691;19;20032;-65
2023/03/11 10:06:31;;;;;;;2.88;1.25;;;4.20;1.00;;;;;;7386511;19;20069;-65
2023/03/11 10:09:08;;;;;;;5.18;1.10;;;3.10;1.00;;;;;;7367110;19;20010;-66
2023/03/11 10:11:58;;;;;;;2.70;1.20;;;3.60;1.00;;;;;;7365981;19;20006;-66
2023/03/11 10:14:41;;;;;;;4.00;1.25;;;4.30;1.00;;;;;;7366003;19;20433;-64
2023/03/11 10:17:23;;;;;;;10.93;1.60;;;5.10;1.00;;;;;;7366438;19;20013;-65
2023/03/11 10:19:59;;;;;;;3.70;1.50;;;4.80;1.00;;;;;;7364532;19;20030;-66
2023/03/11 10:22:34;;;;;;;3.38;1.35;;;4.70;1.00;;;;;;7365486;19;20040;-66
2023/03/11 10:25:12;;;;;;;3.22;1.17;;;4.20;1.00;;;;;;7371177;19;20435;-66
2023/03/11 10:27:47;;;;;;;5.03;0.93;;;4.20;1.00;;;;;;7373556;19;20025;-66
2023/03/11 10:30:25;;;;;;;3.17;1.27;;;4.20;1.00;;;;;;7393290;19;20011;-66
2023/03/11 10:33:02;;;;;;;5.03;1.35;;;3.70;1.00;;;;;;7370764;19;20030;-67
2023/03/11 10:35:39;;;;;;;3.15;0.95;;;4.10;1.00;;;;;;7371228;19;20017;-66
2023/03/11 10:38:17;;;;;;;2.78;1.00;;;4.30;1.00;;;;;;7373126;19;20507;-66
2023/03/11 10:40:48;;;;;;;3.33;0.93;;;4.30;1.00;;;;;;7371402;19;20700;-65
2023/03/11 10:43:39;;;;;;;1.50;0.90;;;4.20;1.00;;;;;;7373300;19;20006;-66
2023/03/11 10:46:19;;;;;;;2.33;0.88;;;4.10;1.00;;;;;;7371595;19;20490;-65
2023/03/11 10:48:52;;;;;;;2.65;1.00;;;4.40;1.00;;;;;;7371769;19;20098;-65
2023/03/11 10:51:25;;;;;;;1.60;0.93;;;4.20;1.00;;;;;;7394533;19;20010;-67
2023/03/11 10:53:56;;;;;;;5.28;1.77;;;4.20;1.00;;;;;;7368781;19;20109;-66
2023/03/11 10:56:29;;;;;;;3.17;1.20;;;4.50;1.00;;;;;;7370784;19;20007;-67
2023/03/11 10:59:00;;;;;;;4.43;1.10;;;4.70;1.00;;;;;;7371656;19;20010;-66
2023/03/11 11:01:31;;;;;;;1.90;1.00;;;5.00;1.00;;;;;;7371331;19;20093;-67
2023/03/11 11:04:04;;;;;;;4.70;0.63;;;5.00;1.00;;;;;;7372180;19;20501;-66
2023/03/11 11:06:36;;;;;;;3.13;0.82;;;5.10;1.00;;;;;;7371086;19;20038;-66
2023/03/11 11:09:07;;;;;;;4.50;1.10;;;5.10;1.00;;;;;;7393724;19;20015;-65
2023/03/11 11:11:38;;;;;;;2.70;1.00;;;4.40;1.00;;;;;;7371693;19;20502;-66
2023/03/11 11:14:08;;;;;;;7.45;1.38;;;4.70;1.00;;;;;;7370211;19;20015;-66
2023/03/11 11:16:38;;;;;;;5.70;1.42;;;4.50;1.00;;;;;;7370523;19;20038;-65
2023/03/11 11:19:14;;;;;;;4.25;1.30;;;4.70;1.00;;;;;;7371029;19;20010;-65
2023/03/11 11:21:49;;;;;;;3.88;1.55;;;4.50;1.00;;;;;;7371903;19;20014;-66
2023/03/11 11:24:24;;;;;;;1.42;0.85;;;4.70;1.00;;;;;;7393495;19;20007;-66
2023/03/11 11:27:06;;;;;;;;;;;4.60;1.00;;;;;;7371208;19;20347;-67
2023/03/11 11:29:36;;;;;;;3.88;1.15;;;4.60;1.00;;;;;;7369001;19;19922;-65
2023/03/11 11:32:20;;;;;;;4.85;1.67;;;4.60;1.00;;;;;;7371604;19;20014;-66
2023/03/11 11:35:01;;;;;;;1.73;0.60;;;5.30;1.00;;;;;;7369831;19;20014;-66
2023/03/11 11:37:34;;;;;;;2.42;0.73;;;5.80;1.00;;;;;;7369198;19;20015;-65
2023/03/11 11:40:11;;;;;;;2.67;0.90;;;5.80;1.00;;;;;;7370381;19;20462;-66
2023/03/11 11:42:44;;;;;;;2.90;0.73;;;5.50;1.00;;;;;;7370736;19;20014;-65
2023/03/11 11:45:18;;;;;;;4.75;1.00;;;5.00;1.00;;;;;;7391128;19;20010;-66
2023/03/11 11:47:51;;;;;;;1.70;0.80;;;5.60;1.00;;;;;;7371548;19;20018;-65
2023/03/11 11:50:30;;;;;;;3.90;1.00;;;5.40;1.00;;;;;;7364532;19;20022;-65
2023/03/11 11:53:07;;;;;;;3.70;0.90;;;5.80;1.00;;;;;;7365922;19;20014;-65
2023/03/11 11:55:41;;;;;;;2.90;1.10;;;6.60;1.00;;;;;;7364773;19;20039;-66
2023/03/11 11:58:13;;;;;;;2.60;0.80;;;6.90;1.00;;;;;;7365892;19;20017;-67
2023/03/11 12:00:52;;;;;;;4.22;1.10;;;7.20;1.00;;;;;;7364961;19;20098;-65
2023/03/11 12:03:53;;;;;;;3.10;1.08;;;7.60;1.00;;;;;;7387345;19;20031;-66
2023/03/11 12:06:33;;;;;;;3.67;1.00;;;5.70;1.00;;;;;;7368466;19;20015;-65
2023/03/11 12:09:14;;;;;;;5.03;1.20;;;5.90;1.00;;;;;;7370188;19;20016;-66
2023/03/11 12:11:50;;;;;;;5.28;1.42;;;5.90;1.00;;;;;;7370867;19;20054;-66
2023/03/11 12:14:26;;;;;;;4.07;1.38;;;5.40;1.00;;;;;;7369042;19;20404;-66
2023/03/11 12:17:00;;;;;;;3.25;0.90;;;5.30;1.00;;;;;;7369125;19;20014;-66
2023/03/11 12:19:38;;;;;;;3.58;1.05;;;5.30;1.00;;;;;;7368585;19;20014;-67
2023/03/11 12:23:00;;;;;;;4.55;0.90;;;5.40;1.00;;;;;;7370750;19;20007;-66
2023/03/11 12:25:36;;;;;;;2.92;0.95;;;5.30;1.00;;;;;;7364773;19;20023;-65
2023/03/11 12:28:17;;;;;;;1.35;0.70;;;5.10;1.00;;;;;;7369350;19;20018;-66
2023/03/11 12:30:49;;;;;;;2.58;1.02;;;4.90;1.00;;;;;;7367784;19;20010;-66
2023/03/11 12:33:25;;;;;;;2.25;0.82;;;4.90;1.00;;;;;;7391125;19;20006;-66
2023/03/11 12:35:57;;;;;;;2.10;0.90;;;5.20;1.00;;;;;;7368903;19;20011;-66
2023/03/11 12:38:34;;;;;;;2.88;1.00;;;5.60;1.00;;;;;;7368100;19;20027;-65
2023/03/11 12:41:06;;;;;;;2.65;1.25;;;5.50;1.00;;;;;;7368773;19;20011;-66
2023/03/11 12:44:09;;;;;;;3.10;1.00;;;5.90;1.00;;;;;;7368595;19;20093;-67
2023/03/11 12:47:01;;;;;;;2.03;1.00;;;5.70;1.00;;;;;;7367611;19;20065;-67
2023/03/11 12:49:33;;;;;;;2.22;0.80;;;5.70;1.00;;;;;;7366071;19;20095;-66
2023/03/11 12:52:06;;;;;;;7.53;1.38;;;6.10;1.00;;;;;;7369268;19;20031;-67
2023/03/11 12:54:40;;;;;;;1.52;1.00;;;5.90;1.00;;;;;;7366804;19;20031;-65
2023/03/11 12:57:32;;;;;;;2.92;1.15;;;5.50;1.00;;;;;;7389790;19;20094;-67
2023/03/11 13:00:22;;;;;;;3.45;1.17;;;5.40;1.00;;;;;;7366245;19;20011;-67
2023/03/11 13:03:18;;;;;;;2.63;0.90;;;5.20;1.00;;;;;;7369598;19;20010;-67
2023/03/11 13:05:59;;;;;;;3.05;1.05;;;5.70;1.00;;;;;;7367816;19;20003;-66
2023/03/11 13:08:32;;;;;;;3.50;1.00;;;6.00;1.00;;;;;;7368121;19;20009;-66
2023/03/11 13:11:30;;;;;;;2.67;1.20;;;6.50;1.00;;;;;;7367230;19;20007;-66
2023/03/11 13:14:30;;;;;;;5.70;1.20;;;5.90;1.00;;;;;;7366697;19;20027;-66
2023/03/11 13:17:25;;;;;;;2.35;0.80;;;5.90;1.00;;;;;;7367792;19;20487;-66
2023/03/11 13:19:57;;;;;;;5.53;1.10;;;5.70;1.00;;;;;;7366160;19;20162;-66
2023/03/11 13:22:43;;;;;;;3.05;0.98;;;5.80;1.00;;;;;;7368052;19;20013;-66
2023/03/11 13:25:34;;;;;;;1.95;0.70;;;6.40;1.00;;;;;;7366722;19;20019;-65
2023/03/11 13:28:31;;;;;;;5.70;0.95;;;5.60;1.00;;;;;;7367915;19;20014;-67
2023/03/11 13:31:16;;;;;;;4.28;1.10;;;6.30;1.00;;;;;;7368361;19;20021;-66
2023/03/11 13:33:57;;;;;;;2.25;1.00;;;6.00;1.00;;;;;;7367647;19;20030;-66
2023/03/11 13:36:40;;;;;;;2.40;0.98;;;6.60;1.00;;;;;;7386367;19;20467;-66
2023/03/11 13:39:40;;;;;;;8.20;2.38;;;6.30;1.00;;;;;;7367067;19;20029;-66